sensor_id;sensor_type;location;lat;lon;timestamp;P1;durP1;ratioP1;P2;durP2;ratioP2
44272;SDS011;29964;17.182;-96.766;2022-11-13T00:00:14;5.45;;;3.28;;
44272;SDS011;29964;17.182;-96.766;2022-11-13T00:02:40;5.15;;;3.30;;
44272;SDS011;29964;17.182;-96.766;2022-11-13T00:05:07;8.60;;;3.05;;
44272;SDS011;29964;17.182;-96.766;2022-11-13T00:07:34;5.38;;;2.72;;
44272;SDS011;29964;17.182;-96.766;2022-11-13T00:10:01;5.60;;;3.35;;
44272;SDS011;29964;17.182;-96.766;2022-11-13T00:12:27;7.00;;;4.10;;
44272;SDS011;29964;17.182;-96.766;2022-11-13T00:14:54;3.13;;;2.40;;
44272;SDS011;29964;17.182;-96.766;2022-11-13T00:17:21;6.93;;;3.80;;
44272;SDS011;29964;17.182;-96.766;2022-11-13T00:19:47;5.50;;;3.23;;
44272;SDS011;29964;17.182;-96.766;2022-11-13T00:22:14;26.57;;;5.17;;
44272;SDS011;29964;17.182;-96.766;2022-11-13T00:24:41;7.60;;;4.53;;
44272;SDS011;29964;17.182;-96.766;2022-11-13T00:27:08;4.27;;;2.63;;
44272;SDS011;29964;17.182;-96.766;2022-11-13T00:29:34;8.67;;;3.67;;
44272;SDS011;29964;17.182;-96.766;2022-11-13T00:32:01;4.87;;;3.10;;
44272;SDS011;29964;17.182;-96.766;2022-11-13T00:34:27;6.43;;;3.90;;
44272;SDS011;29964;17.182;-96.766;2022-11-13T00:36:54;8.50;;;5.80;;
44272;SDS011;29964;17.182;-96.766;2022-11-13T00:39:21;4.53;;;3.13;;
44272;SDS011;29964;17.182;-96.766;2022-11-13T00:41:47;5.63;;;3.00;;
44272;SDS011;29964;17.182;-96.766;2022-11-13T00:44:14;5.23;;;3.03;;
44272;SDS011;29964;17.182;-96.766;2022-11-13T00:46:41;10.27;;;6.53;;
44272;SDS011;29964;17.182;-96.766;2022-11-13T00:49:07;8.00;;;4.93;;
44272;SDS011;29964;17.182;-96.766;2022-11-13T00:51:34;3.57;;;2.93;;
44272;SDS011;29964;17.182;-96.766;2022-11-13T00:54:01;5.37;;;4.00;;
44272;SDS011;29964;17.182;-96.766;2022-11-13T00:56:27;5.97;;;3.77;;
44272;SDS011;29964;17.182;-96.766;2022-11-13T00:58:54;3.93;;;2.77;;
44272;SDS011;29964;17.182;-96.766;2022-11-13T01:01:21;5.27;;;2.97;;
44272;SDS011;29964;17.182;-96.766;2022-11-13T01:03:48;8.13;;;4.70;;
44272;SDS011;29964;17.182;-96.766;2022-11-13T01:06:32;5.83;;;3.33;;
44272;SDS011;29964;17.182;-96.766;2022-11-13T01:08:59;5.68;;;3.28;;
44272;SDS011;29964;17.182;-96.766;2022-11-13T01:11:26;30.33;;;3.93;;
44272;SDS011;29964;17.182;-96.766;2022-11-13T01:13:53;5.50;;;3.40;;
44272;SDS011;29964;17.182;-96.766;2022-11-13T01:16:22;5.93;;;4.17;;
44272;SDS011;29964;17.182;-96.766;2022-11-13T01:18:52;10.53;;;3.77;;
44272;SDS011;29964;17.182;-96.766;2022-11-13T01:21:20;5.03;;;4.23;;
44272;SDS011;29964;17.182;-96.766;2022-11-13T01:23:47;5.97;;;3.83;;
44272;SDS011;29964;17.182;-96.766;2022-11-13T01:26:16;4.93;;;3.77;;
44272;SDS011;29964;17.182;-96.766;2022-11-13T01:28:43;4.70;;;3.37;;
44272;SDS011;29964;17.182;-96.766;2022-11-13T01:31:12;13.07;;;3.63;;
44272;SDS011;29964;17.182;-96.766;2022-11-13T01:33:39;3.37;;;2.80;;
44272;SDS011;29964;17.182;-96.766;2022-11-13T01:36:07;6.30;;;3.23;;
44272;SDS011;29964;17.182;-96.766;2022-11-13T01:38:33;5.30;;;3.67;;
44272;SDS011;29964;17.182;-96.766;2022-11-13T01:41:00;5.53;;;3.80;;
44272;SDS011;29964;17.182;-96.766;2022-11-13T01:43:28;9.23;;;3.77;;
44272;SDS011;29964;17.182;-96.766;2022-11-13T01:48:26;4.67;;;3.50;;
44272;SDS011;29964;17.182;-96.766;2022-11-13T01:50:54;6.97;;;5.03;;
44272;SDS011;29964;17.182;-96.766;2022-11-13T01:53:20;8.93;;;5.23;;
44272;SDS011;29964;17.182;-96.766;2022-11-13T01:55:47;5.90;;;4.20;;
44272;SDS011;29964;17.182;-96.766;2022-11-13T01:58:14;6.47;;;4.10;;
44272;SDS011;29964;17.182;-96.766;2022-11-13T02:00:41;6.83;;;4.67;;
44272;SDS011;29964;17.182;-96.766;2022-11-13T02:03:08;9.40;;;4.53;;
44272;SDS011;29964;17.182;-96.766;2022-11-13T02:05:35;6.60;;;3.60;;
44272;SDS011;29964;17.182;-96.766;2022-11-13T02:08:01;3.13;;;2.43;;
44272;SDS011;29964;17.182;-96.766;2022-11-13T02:10:28;3.73;;;2.60;;
44272;SDS011;29964;17.182;-96.766;2022-11-13T02:12:55;8.60;;;4.00;;
44272;SDS011;29964;17.182;-96.766;2022-11-13T02:15:23;6.20;;;3.93;;
44272;SDS011;29964;17.182;-96.766;2022-11-13T02:17:54;6.63;;;5.47;;
44272;SDS011;29964;17.182;-96.766;2022-11-13T02:20:26;10.07;;;3.37;;
44272;SDS011;29964;17.182;-96.766;2022-11-13T02:25:28;5.40;;;3.77;;
44272;SDS011;29964;17.182;-96.766;2022-11-13T02:27:55;7.03;;;4.67;;
44272;SDS011;29964;17.182;-96.766;2022-11-13T02:30:23;8.10;;;4.43;;
44272;SDS011;29964;17.182;-96.766;2022-11-13T02:32:51;7.60;;;4.23;;
44272;SDS011;29964;17.182;-96.766;2022-11-13T02:35:19;5.00;;;3.80;;
44272;SDS011;29964;17.182;-96.766;2022-11-13T02:37:46;6.10;;;4.37;;
44272;SDS011;29964;17.182;-96.766;2022-11-13T02:40:13;5.90;;;4.50;;
44272;SDS011;29964;17.182;-96.766;2022-11-13T02:42:39;6.47;;;4.13;;
44272;SDS011;29964;17.182;-96.766;2022-11-13T02:45:06;7.43;;;3.20;;
44272;SDS011;29964;17.182;-96.766;2022-11-13T02:47:33;6.57;;;4.37;;
44272;SDS011;29964;17.182;-96.766;2022-11-13T02:50:00;7.00;;;4.90;;
44272;SDS011;29964;17.182;-96.766;2022-11-13T02:52:26;5.57;;;4.30;;
44272;SDS011;29964;17.182;-96.766;2022-11-13T02:54:55;4.00;;;3.30;;
44272;SDS011;29964;17.182;-96.766;2022-11-13T02:57:22;6.17;;;3.83;;
44272;SDS011;29964;17.182;-96.766;2022-11-13T02:59:48;5.30;;;3.70;;
44272;SDS011;29964;17.182;-96.766;2022-11-13T03:02:15;7.27;;;4.33;;
44272;SDS011;29964;17.182;-96.766;2022-11-13T03:04:42;4.90;;;3.63;;
44272;SDS011;29964;17.182;-96.766;2022-11-13T03:07:10;10.97;;;5.30;;
44272;SDS011;29964;17.182;-96.766;2022-11-13T03:09:38;5.10;;;3.53;;
44272;SDS011;29964;17.182;-96.766;2022-11-13T03:12:05;3.93;;;2.63;;
44272;SDS011;29964;17.182;-96.766;2022-11-13T03:14:32;8.50;;;3.20;;
44272;SDS011;29964;17.182;-96.766;2022-11-13T03:16:59;4.00;;;3.17;;
44272;SDS011;29964;17.182;-96.766;2022-11-13T03:19:26;5.33;;;3.37;;
44272;SDS011;29964;17.182;-96.766;2022-11-13T03:21:53;3.80;;;2.83;;
44272;SDS011;29964;17.182;-96.766;2022-11-13T03:24:20;4.13;;;2.90;;
44272;SDS011;29964;17.182;-96.766;2022-11-13T03:26:46;6.40;;;4.43;;
44272;SDS011;29964;17.182;-96.766;2022-11-13T03:29:13;8.50;;;5.40;;
44272;SDS011;29964;17.182;-96.766;2022-11-13T03:31:40;6.80;;;4.70;;
44272;SDS011;29964;17.182;-96.766;2022-11-13T03:34:06;7.33;;;4.80;;
44272;SDS011;29964;17.182;-96.766;2022-11-13T03:36:33;8.20;;;4.87;;
44272;SDS011;29964;17.182;-96.766;2022-11-13T03:39:00;5.53;;;4.27;;
44272;SDS011;29964;17.182;-96.766;2022-11-13T03:41:26;3.87;;;2.97;;
44272;SDS011;29964;17.182;-96.766;2022-11-13T03:43:53;5.87;;;2.83;;
44272;SDS011;29964;17.182;-96.766;2022-11-13T03:46:20;7.17;;;4.87;;
44272;SDS011;29964;17.182;-96.766;2022-11-13T03:48:47;5.73;;;4.43;;
44272;SDS011;29964;17.182;-96.766;2022-11-13T03:51:13;8.00;;;4.57;;
44272;SDS011;29964;17.182;-96.766;2022-11-13T03:53:40;7.40;;;4.50;;
44272;SDS011;29964;17.182;-96.766;2022-11-13T03:56:07;3.63;;;2.83;;
44272;SDS011;29964;17.182;-96.766;2022-11-13T03:58:33;5.47;;;4.20;;
44272;SDS011;29964;17.182;-96.766;2022-11-13T04:01:00;10.87;;;7.57;;
44272;SDS011;29964;17.182;-96.766;2022-11-13T04:03:27;6.43;;;4.27;;
44272;SDS011;29964;17.182;-96.766;2022-11-13T04:05:54;9.77;;;4.77;;
44272;SDS011;29964;17.182;-96.766;2022-11-13T04:08:20;11.07;;;6.00;;
44272;SDS011;29964;17.182;-96.766;2022-11-13T04:10:47;6.53;;;4.50;;
44272;SDS011;29964;17.182;-96.766;2022-11-13T04:13:14;5.63;;;4.57;;
44272;SDS011;29964;17.182;-96.766;2022-11-13T04:15:40;3.73;;;3.00;;
44272;SDS011;29964;17.182;-96.766;2022-11-13T04:18:07;4.27;;;3.00;;
44272;SDS011;29964;17.182;-96.766;2022-11-13T04:20:34;8.27;;;4.97;;
44272;SDS011;29964;17.182;-96.766;2022-11-13T04:23:00;7.87;;;4.93;;
44272;SDS011;29964;17.182;-96.766;2022-11-13T04:25:32;4.90;;;3.73;;
44272;SDS011;29964;17.182;-96.766;2022-11-13T04:27:58;10.97;;;7.53;;
44272;SDS011;29964;17.182;-96.766;2022-11-13T04:30:25;7.13;;;4.60;;
44272;SDS011;29964;17.182;-96.766;2022-11-13T04:32:52;4.87;;;3.77;;
44272;SDS011;29964;17.182;-96.766;2022-11-13T04:35:18;5.30;;;3.80;;
44272;SDS011;29964;17.182;-96.766;2022-11-13T04:37:45;2.83;;;2.03;;
44272;SDS011;29964;17.182;-96.766;2022-11-13T04:40:12;9.57;;;4.93;;
44272;SDS011;29964;17.182;-96.766;2022-11-13T04:42:38;21.17;;;6.40;;
44272;SDS011;29964;17.182;-96.766;2022-11-13T04:45:21;14.57;;;5.53;;
44272;SDS011;29964;17.182;-96.766;2022-11-13T04:47:49;9.83;;;5.80;;
44272;SDS011;29964;17.182;-96.766;2022-11-13T04:50:16;6.63;;;4.57;;
44272;SDS011;29964;17.182;-96.766;2022-11-13T04:52:43;11.63;;;4.50;;
44272;SDS011;29964;17.182;-96.766;2022-11-13T04:55:10;10.17;;;4.70;;
44272;SDS011;29964;17.182;-96.766;2022-11-13T04:57:37;5.43;;;3.67;;
44272;SDS011;29964;17.182;-96.766;2022-11-13T05:00:04;2.97;;;2.50;;
44272;SDS011;29964;17.182;-96.766;2022-11-13T05:02:31;4.97;;;4.00;;
44272;SDS011;29964;17.182;-96.766;2022-11-13T05:04:58;12.30;;;3.30;;
44272;SDS011;29964;17.182;-96.766;2022-11-13T05:07:25;6.43;;;4.77;;
44272;SDS011;29964;17.182;-96.766;2022-11-13T05:09:52;23.57;;;4.20;;
44272;SDS011;29964;17.182;-96.766;2022-11-13T05:12:19;6.67;;;5.73;;
44272;SDS011;29964;17.182;-96.766;2022-11-13T05:14:46;8.33;;;6.03;;
44272;SDS011;29964;17.182;-96.766;2022-11-13T05:17:13;4.90;;;3.63;;
44272;SDS011;29964;17.182;-96.766;2022-11-13T05:19:39;6.97;;;5.90;;
44272;SDS011;29964;17.182;-96.766;2022-11-13T05:22:06;4.60;;;3.50;;
44272;SDS011;29964;17.182;-96.766;2022-11-13T05:24:33;3.83;;;3.03;;
44272;SDS011;29964;17.182;-96.766;2022-11-13T05:26:59;3.73;;;2.97;;
44272;SDS011;29964;17.182;-96.766;2022-11-13T05:29:26;4.53;;;3.57;;
44272;SDS011;29964;17.182;-96.766;2022-11-13T05:31:53;13.47;;;8.17;;
44272;SDS011;29964;17.182;-96.766;2022-11-13T05:34:19;11.53;;;6.80;;
44272;SDS011;29964;17.182;-96.766;2022-11-13T05:36:46;7.67;;;4.40;;
44272;SDS011;29964;17.182;-96.766;2022-11-13T05:39:13;5.30;;;3.63;;
44272;SDS011;29964;17.182;-96.766;2022-11-13T05:41:39;7.40;;;5.87;;
44272;SDS011;29964;17.182;-96.766;2022-11-13T05:44:06;7.20;;;3.63;;
44272;SDS011;29964;17.182;-96.766;2022-11-13T05:46:33;6.40;;;3.83;;
44272;SDS011;29964;17.182;-96.766;2022-11-13T05:49:00;11.63;;;6.50;;
44272;SDS011;29964;17.182;-96.766;2022-11-13T05:51:31;7.07;;;5.53;;
44272;SDS011;29964;17.182;-96.766;2022-11-13T05:53:58;5.43;;;3.83;;
44272;SDS011;29964;17.182;-96.766;2022-11-13T05:56:26;6.23;;;4.17;;
44272;SDS011;29964;17.182;-96.766;2022-11-13T05:58:54;6.20;;;4.00;;
44272;SDS011;29964;17.182;-96.766;2022-11-13T06:01:25;5.20;;;3.93;;
44272;SDS011;29964;17.182;-96.766;2022-11-13T06:03:52;3.47;;;2.77;;
44272;SDS011;29964;17.182;-96.766;2022-11-13T06:06:20;7.53;;;3.77;;
44272;SDS011;29964;17.182;-96.766;2022-11-13T06:08:48;6.17;;;3.80;;
44272;SDS011;29964;17.182;-96.766;2022-11-13T06:11:16;6.40;;;5.80;;
44272;SDS011;29964;17.182;-96.766;2022-11-13T06:13:43;6.03;;;4.33;;
44272;SDS011;29964;17.182;-96.766;2022-11-13T06:16:14;6.43;;;5.33;;
44272;SDS011;29964;17.182;-96.766;2022-11-13T06:18:41;5.67;;;3.23;;
44272;SDS011;29964;17.182;-96.766;2022-11-13T06:21:10;6.77;;;4.97;;
44272;SDS011;29964;17.182;-96.766;2022-11-13T06:23:37;9.03;;;5.53;;
44272;SDS011;29964;17.182;-96.766;2022-11-13T06:26:05;5.90;;;4.17;;
44272;SDS011;29964;17.182;-96.766;2022-11-13T06:28:33;17.13;;;6.03;;
44272;SDS011;29964;17.182;-96.766;2022-11-13T06:31:10;5.43;;;2.93;;
44272;SDS011;29964;17.182;-96.766;2022-11-13T06:33:37;4.37;;;3.60;;
44272;SDS011;29964;17.182;-96.766;2022-11-13T06:36:05;4.80;;;3.67;;
44272;SDS011;29964;17.182;-96.766;2022-11-13T06:38:33;6.53;;;3.83;;
44272;SDS011;29964;17.182;-96.766;2022-11-13T06:41:00;8.43;;;5.27;;
44272;SDS011;29964;17.182;-96.766;2022-11-13T06:43:27;5.37;;;3.97;;
44272;SDS011;29964;17.182;-96.766;2022-11-13T06:45:54;7.53;;;5.47;;
44272;SDS011;29964;17.182;-96.766;2022-11-13T06:48:22;5.50;;;3.93;;
44272;SDS011;29964;17.182;-96.766;2022-11-13T06:50:49;6.33;;;4.77;;
44272;SDS011;29964;17.182;-96.766;2022-11-13T06:53:16;6.70;;;5.40;;
44272;SDS011;29964;17.182;-96.766;2022-11-13T06:55:47;10.23;;;6.50;;
44272;SDS011;29964;17.182;-96.766;2022-11-13T06:58:14;8.27;;;5.57;;
44272;SDS011;29964;17.182;-96.766;2022-11-13T07:00:41;4.93;;;4.17;;
44272;SDS011;29964;17.182;-96.766;2022-11-13T07:03:14;5.73;;;4.53;;
44272;SDS011;29964;17.182;-96.766;2022-11-13T07:05:41;35.83;;;5.63;;
44272;SDS011;29964;17.182;-96.766;2022-11-13T07:08:08;8.10;;;5.67;;
44272;SDS011;29964;17.182;-96.766;2022-11-13T07:10:34;15.20;;;6.10;;
44272;SDS011;29964;17.182;-96.766;2022-11-13T07:13:01;9.10;;;6.83;;
44272;SDS011;29964;17.182;-96.766;2022-11-13T07:15:28;5.10;;;3.37;;
44272;SDS011;29964;17.182;-96.766;2022-11-13T07:17:54;3.20;;;2.90;;
44272;SDS011;29964;17.182;-96.766;2022-11-13T07:20:21;4.97;;;3.60;;
44272;SDS011;29964;17.182;-96.766;2022-11-13T07:22:48;7.43;;;5.93;;
44272;SDS011;29964;17.182;-96.766;2022-11-13T07:25:14;4.70;;;3.83;;
44272;SDS011;29964;17.182;-96.766;2022-11-13T07:27:44;6.10;;;3.63;;
44272;SDS011;29964;17.182;-96.766;2022-11-13T07:30:11;5.03;;;4.17;;
44272;SDS011;29964;17.182;-96.766;2022-11-13T07:32:38;5.70;;;4.70;;
44272;SDS011;29964;17.182;-96.766;2022-11-13T07:35:04;11.27;;;6.00;;
44272;SDS011;29964;17.182;-96.766;2022-11-13T07:37:31;11.43;;;7.63;;
44272;SDS011;29964;17.182;-96.766;2022-11-13T07:39:58;5.97;;;4.83;;
44272;SDS011;29964;17.182;-96.766;2022-11-13T07:42:24;10.27;;;5.57;;
44272;SDS011;29964;17.182;-96.766;2022-11-13T07:44:51;7.20;;;5.40;;
44272;SDS011;29964;17.182;-96.766;2022-11-13T07:47:18;5.20;;;3.87;;
44272;SDS011;29964;17.182;-96.766;2022-11-13T07:49:45;4.47;;;3.30;;
44272;SDS011;29964;17.182;-96.766;2022-11-13T07:52:11;4.73;;;3.20;;
44272;SDS011;29964;17.182;-96.766;2022-11-13T07:54:38;6.13;;;5.40;;
44272;SDS011;29964;17.182;-96.766;2022-11-13T07:57:05;5.93;;;4.93;;
44272;SDS011;29964;17.182;-96.766;2022-11-13T07:59:31;5.37;;;4.57;;
44272;SDS011;29964;17.182;-96.766;2022-11-13T08:01:58;6.17;;;3.20;;
44272;SDS011;29964;17.182;-96.766;2022-11-13T08:04:24;6.23;;;5.00;;
44272;SDS011;29964;17.182;-96.766;2022-11-13T08:06:51;5.60;;;4.57;;
44272;SDS011;29964;17.182;-96.766;2022-11-13T08:09:18;7.37;;;5.93;;
44272;SDS011;29964;17.182;-96.766;2022-11-13T08:11:44;7.23;;;5.33;;
44272;SDS011;29964;17.182;-96.766;2022-11-13T08:14:11;10.13;;;6.50;;
44272;SDS011;29964;17.182;-96.766;2022-11-13T08:16:38;6.87;;;5.87;;
44272;SDS011;29964;17.182;-96.766;2022-11-13T08:19:05;6.93;;;6.23;;
44272;SDS011;29964;17.182;-96.766;2022-11-13T08:21:31;9.67;;;6.50;;
44272;SDS011;29964;17.182;-96.766;2022-11-13T08:24:00;10.57;;;7.37;;
44272;SDS011;29964;17.182;-96.766;2022-11-13T08:26:26;6.30;;;4.97;;
44272;SDS011;29964;17.182;-96.766;2022-11-13T08:28:53;11.60;;;6.03;;
44272;SDS011;29964;17.182;-96.766;2022-11-13T08:31:20;38.13;;;7.33;;
44272;SDS011;29964;17.182;-96.766;2022-11-13T08:33:46;6.87;;;6.17;;
44272;SDS011;29964;17.182;-96.766;2022-11-13T08:36:13;8.93;;;6.07;;
44272;SDS011;29964;17.182;-96.766;2022-11-13T08:38:39;9.50;;;6.33;;
44272;SDS011;29964;17.182;-96.766;2022-11-13T08:41:06;14.40;;;7.83;;
44272;SDS011;29964;17.182;-96.766;2022-11-13T08:43:33;6.87;;;4.80;;
44272;SDS011;29964;17.182;-96.766;2022-11-13T08:46:00;5.43;;;4.30;;
44272;SDS011;29964;17.182;-96.766;2022-11-13T08:48:26;7.60;;;6.17;;
44272;SDS011;29964;17.182;-96.766;2022-11-13T08:50:54;5.73;;;4.90;;
44272;SDS011;29964;17.182;-96.766;2022-11-13T08:53:21;5.47;;;4.47;;
44272;SDS011;29964;17.182;-96.766;2022-11-13T08:55:48;7.00;;;4.63;;
44272;SDS011;29964;17.182;-96.766;2022-11-13T08:58:15;8.83;;;5.63;;
44272;SDS011;29964;17.182;-96.766;2022-11-13T09:00:42;10.00;;;6.57;;
44272;SDS011;29964;17.182;-96.766;2022-11-13T09:03:09;7.97;;;5.73;;
44272;SDS011;29964;17.182;-96.766;2022-11-13T09:05:37;10.60;;;7.10;;
44272;SDS011;29964;17.182;-96.766;2022-11-13T09:08:03;10.63;;;5.43;;
44272;SDS011;29964;17.182;-96.766;2022-11-13T09:10:30;6.57;;;5.53;;
44272;SDS011;29964;17.182;-96.766;2022-11-13T09:13:00;10.00;;;6.10;;
44272;SDS011;29964;17.182;-96.766;2022-11-13T09:15:27;7.30;;;5.03;;
44272;SDS011;29964;17.182;-96.766;2022-11-13T09:17:57;6.07;;;3.97;;
44272;SDS011;29964;17.182;-96.766;2022-11-13T09:20:25;7.87;;;6.23;;
44272;SDS011;29964;17.182;-96.766;2022-11-13T09:22:55;6.23;;;4.20;;
44272;SDS011;29964;17.182;-96.766;2022-11-13T09:25:22;3.97;;;3.50;;
44272;SDS011;29964;17.182;-96.766;2022-11-13T09:27:52;7.77;;;5.80;;
44272;SDS011;29964;17.182;-96.766;2022-11-13T09:30:20;5.70;;;4.80;;
44272;SDS011;29964;17.182;-96.766;2022-11-13T09:32:46;11.17;;;5.93;;
44272;SDS011;29964;17.182;-96.766;2022-11-13T09:35:13;7.30;;;4.57;;
44272;SDS011;29964;17.182;-96.766;2022-11-13T09:37:40;7.77;;;5.73;;
44272;SDS011;29964;17.182;-96.766;2022-11-13T09:40:07;12.67;;;5.70;;
44272;SDS011;29964;17.182;-96.766;2022-11-13T09:42:37;6.03;;;4.20;;
44272;SDS011;29964;17.182;-96.766;2022-11-13T09:45:06;12.80;;;6.27;;
44272;SDS011;29964;17.182;-96.766;2022-11-13T09:47:37;18.17;;;6.17;;
44272;SDS011;29964;17.182;-96.766;2022-11-13T09:50:21;8.83;;;5.63;;
44272;SDS011;29964;17.182;-96.766;2022-11-13T09:52:49;8.70;;;5.53;;
44272;SDS011;29964;17.182;-96.766;2022-11-13T09:55:17;5.77;;;5.00;;
44272;SDS011;29964;17.182;-96.766;2022-11-13T09:57:56;5.33;;;3.77;;
44272;SDS011;29964;17.182;-96.766;2022-11-13T10:00:25;7.50;;;6.17;;
44272;SDS011;29964;17.182;-96.766;2022-11-13T10:05:45;6.32;;;5.22;;
44272;SDS011;29964;17.182;-96.766;2022-11-13T10:13:43;7.57;;;5.87;;
44272;SDS011;29964;17.182;-96.766;2022-11-13T10:18:47;6.10;;;5.17;;
44272;SDS011;29964;17.182;-96.766;2022-11-13T10:23:46;8.23;;;5.43;;
44272;SDS011;29964;17.182;-96.766;2022-11-13T10:26:17;7.83;;;6.57;;
44272;SDS011;29964;17.182;-96.766;2022-11-13T10:28:44;4.10;;;3.60;;
44272;SDS011;29964;17.182;-96.766;2022-11-13T10:31:11;3.57;;;3.10;;
44272;SDS011;29964;17.182;-96.766;2022-11-13T10:33:38;10.27;;;7.13;;
44272;SDS011;29964;17.182;-96.766;2022-11-13T10:41:13;7.47;;;5.10;;
44272;SDS011;29964;17.182;-96.766;2022-11-13T10:43:50;5.53;;;5.03;;
44272;SDS011;29964;17.182;-96.766;2022-11-13T10:46:24;7.07;;;6.20;;
44272;SDS011;29964;17.182;-96.766;2022-11-13T10:48:54;7.80;;;5.70;;
44272;SDS011;29964;17.182;-96.766;2022-11-13T10:51:25;6.70;;;4.97;;
44272;SDS011;29964;17.182;-96.766;2022-11-13T10:53:52;5.03;;;3.67;;
44272;SDS011;29964;17.182;-96.766;2022-11-13T10:58:59;5.07;;;4.43;;
44272;SDS011;29964;17.182;-96.766;2022-11-13T11:01:26;8.50;;;6.53;;
44272;SDS011;29964;17.182;-96.766;2022-11-13T11:03:52;7.53;;;5.97;;
44272;SDS011;29964;17.182;-96.766;2022-11-13T11:06:19;9.83;;;6.67;;
44272;SDS011;29964;17.182;-96.766;2022-11-13T11:08:46;8.83;;;5.20;;
44272;SDS011;29964;17.182;-96.766;2022-11-13T11:11:13;5.87;;;4.73;;
44272;SDS011;29964;17.182;-96.766;2022-11-13T11:16:44;3.83;;;3.20;;
44272;SDS011;29964;17.182;-96.766;2022-11-13T11:19:11;5.13;;;3.57;;
44272;SDS011;29964;17.182;-96.766;2022-11-13T11:21:41;12.80;;;7.07;;
44272;SDS011;29964;17.182;-96.766;2022-11-13T11:24:10;12.30;;;6.93;;
44272;SDS011;29964;17.182;-96.766;2022-11-13T11:41:41;5.90;;;4.27;;
44272;SDS011;29964;17.182;-96.766;2022-11-13T11:44:15;5.23;;;4.47;;
44272;SDS011;29964;17.182;-96.766;2022-11-13T11:46:44;6.93;;;5.30;;
44272;SDS011;29964;17.182;-96.766;2022-11-13T11:49:10;7.23;;;5.70;;
44272;SDS011;29964;17.182;-96.766;2022-11-13T11:51:44;13.30;;;6.97;;
44272;SDS011;29964;17.182;-96.766;2022-11-13T12:04:46;12.77;;;6.35;;
44272;SDS011;29964;17.182;-96.766;2022-11-13T12:10:03;5.67;;;4.83;;
44272;SDS011;29964;17.182;-96.766;2022-11-13T12:15:03;5.27;;;4.77;;
44272;SDS011;29964;17.182;-96.766;2022-11-13T12:20:10;7.33;;;4.60;;
44272;SDS011;29964;17.182;-96.766;2022-11-13T12:25:28;5.07;;;4.40;;
44272;SDS011;29964;17.182;-96.766;2022-11-13T12:28:16;5.73;;;4.03;;
44272;SDS011;29964;17.182;-96.766;2022-11-13T12:36:09;3.73;;;3.33;;
44272;SDS011;29964;17.182;-96.766;2022-11-13T12:38:43;7.13;;;5.00;;
44272;SDS011;29964;17.182;-96.766;2022-11-13T12:43:52;5.40;;;4.30;;
44272;SDS011;29964;17.182;-96.766;2022-11-13T12:46:22;9.37;;;4.70;;
44272;SDS011;29964;17.182;-96.766;2022-11-13T12:48:58;4.10;;;3.60;;
44272;SDS011;29964;17.182;-96.766;2022-11-13T12:51:35;8.20;;;5.33;;
44272;SDS011;29964;17.182;-96.766;2022-11-13T12:54:02;6.33;;;5.63;;
44272;SDS011;29964;17.182;-96.766;2022-11-13T12:56:30;6.17;;;5.07;;
44272;SDS011;29964;17.182;-96.766;2022-11-13T12:58:59;4.07;;;3.60;;
44272;SDS011;29964;17.182;-96.766;2022-11-13T13:01:27;4.77;;;3.57;;
44272;SDS011;29964;17.182;-96.766;2022-11-13T13:04:06;5.40;;;4.57;;
44272;SDS011;29964;17.182;-96.766;2022-11-13T13:09:23;6.30;;;4.10;;
44272;SDS011;29964;17.182;-96.766;2022-11-13T13:12:05;7.83;;;4.40;;
44272;SDS011;29964;17.182;-96.766;2022-11-13T13:17:06;6.83;;;5.83;;
44272;SDS011;29964;17.182;-96.766;2022-11-13T13:19:41;8.13;;;5.20;;
44272;SDS011;29964;17.182;-96.766;2022-11-13T13:22:22;5.80;;;4.83;;
44272;SDS011;29964;17.182;-96.766;2022-11-13T13:42:32;5.67;;;4.80;;
44272;SDS011;29964;17.182;-96.766;2022-11-13T13:47:35;11.47;;;5.93;;
44272;SDS011;29964;17.182;-96.766;2022-11-13T13:50:04;6.57;;;5.20;;
44272;SDS011;29964;17.182;-96.766;2022-11-13T13:52:31;5.27;;;3.73;;
44272;SDS011;29964;17.182;-96.766;2022-11-13T13:55:02;5.60;;;4.80;;
44272;SDS011;29964;17.182;-96.766;2022-11-13T13:57:29;7.93;;;4.73;;
44272;SDS011;29964;17.182;-96.766;2022-11-13T13:59:56;3.93;;;3.37;;
44272;SDS011;29964;17.182;-96.766;2022-11-13T14:02:23;8.87;;;6.13;;
44272;SDS011;29964;17.182;-96.766;2022-11-13T14:04:51;6.07;;;3.87;;
44272;SDS011;29964;17.182;-96.766;2022-11-13T14:07:25;3.40;;;3.00;;
44272;SDS011;29964;17.182;-96.766;2022-11-13T14:10:05;8.85;;;4.78;;
44272;SDS011;29964;17.182;-96.766;2022-11-13T14:12:32;6.53;;;4.73;;
44272;SDS011;29964;17.182;-96.766;2022-11-13T14:14:59;7.57;;;5.03;;
44272;SDS011;29964;17.182;-96.766;2022-11-13T14:17:25;4.43;;;3.60;;
44272;SDS011;29964;17.182;-96.766;2022-11-13T14:19:54;4.67;;;3.27;;
44272;SDS011;29964;17.182;-96.766;2022-11-13T14:22:24;4.20;;;3.70;;
44272;SDS011;29964;17.182;-96.766;2022-11-13T14:24:56;6.23;;;3.50;;
44272;SDS011;29964;17.182;-96.766;2022-11-13T14:27:24;3.70;;;3.17;;
44272;SDS011;29964;17.182;-96.766;2022-11-13T14:29:54;6.90;;;3.10;;
44272;SDS011;29964;17.182;-96.766;2022-11-13T14:32:27;4.13;;;2.20;;
44272;SDS011;29964;17.182;-96.766;2022-11-13T14:34:55;2.53;;;2.00;;
44272;SDS011;29964;17.182;-96.766;2022-11-13T14:39:52;3.07;;;2.33;;
44272;SDS011;29964;17.182;-96.766;2022-11-13T14:42:25;4.87;;;3.00;;
44272;SDS011;29964;17.182;-96.766;2022-11-13T14:44:53;3.63;;;2.60;;
44272;SDS011;29964;17.182;-96.766;2022-11-13T14:47:28;5.03;;;2.13;;
44272;SDS011;29964;17.182;-96.766;2022-11-13T14:52:40;4.93;;;2.87;;
44272;SDS011;29964;17.182;-96.766;2022-11-13T14:55:18;3.53;;;1.87;;
44272;SDS011;29964;17.182;-96.766;2022-11-13T14:57:48;2.93;;;1.83;;
44272;SDS011;29964;17.182;-96.766;2022-11-13T15:00:15;4.73;;;2.67;;
44272;SDS011;29964;17.182;-96.766;2022-11-13T15:02:42;2.70;;;1.83;;
44272;SDS011;29964;17.182;-96.766;2022-11-13T15:05:09;9.27;;;2.23;;
44272;SDS011;29964;17.182;-96.766;2022-11-13T15:07:38;2.70;;;1.73;;
44272;SDS011;29964;17.182;-96.766;2022-11-13T15:10:08;3.63;;;2.20;;
44272;SDS011;29964;17.182;-96.766;2022-11-13T15:12:38;3.00;;;2.20;;
44272;SDS011;29964;17.182;-96.766;2022-11-13T15:15:05;2.67;;;1.47;;
44272;SDS011;29964;17.182;-96.766;2022-11-13T15:17:33;3.87;;;1.50;;
44272;SDS011;29964;17.182;-96.766;2022-11-13T15:20:01;2.00;;;0.97;;
44272;SDS011;29964;17.182;-96.766;2022-11-13T15:22:28;2.87;;;1.20;;
44272;SDS011;29964;17.182;-96.766;2022-11-13T15:24:54;1.63;;;1.03;;
44272;SDS011;29964;17.182;-96.766;2022-11-13T15:27:21;1.07;;;0.77;;
44272;SDS011;29964;17.182;-96.766;2022-11-13T15:29:48;4.33;;;1.07;;
44272;SDS011;29964;17.182;-96.766;2022-11-13T15:32:14;3.27;;;1.07;;
44272;SDS011;29964;17.182;-96.766;2022-11-13T15:34:41;2.50;;;1.13;;
44272;SDS011;29964;17.182;-96.766;2022-11-13T15:37:11;1.60;;;0.77;;
44272;SDS011;29964;17.182;-96.766;2022-11-13T15:39:38;0.63;;;0.50;;
44272;SDS011;29964;17.182;-96.766;2022-11-13T15:42:06;1.53;;;0.87;;
44272;SDS011;29964;17.182;-96.766;2022-11-13T15:44:33;1.43;;;0.77;;
44272;SDS011;29964;17.182;-96.766;2022-11-13T15:47:00;0.73;;;0.50;;
44272;SDS011;29964;17.182;-96.766;2022-11-13T15:49:26;0.40;;;0.40;;
44272;SDS011;29964;17.182;-96.766;2022-11-13T15:51:53;0.87;;;0.67;;
44272;SDS011;29964;17.182;-96.766;2022-11-13T15:54:24;1.67;;;0.70;;
44272;SDS011;29964;17.182;-96.766;2022-11-13T15:56:52;0.67;;;0.57;;
44272;SDS011;29964;17.182;-96.766;2022-11-13T15:59:19;0.93;;;0.80;;
44272;SDS011;29964;17.182;-96.766;2022-11-13T16:01:45;0.50;;;0.50;;
44272;SDS011;29964;17.182;-96.766;2022-11-13T16:04:12;5.23;;;3.17;;
44272;SDS011;29964;17.182;-96.766;2022-11-13T16:06:40;1.40;;;0.97;;
44272;SDS011;29964;17.182;-96.766;2022-11-13T16:09:13;1.30;;;0.77;;